createdAt,value
2023-01-11T00:00:55.264Z,9.88
2023-01-11T00:03:21.908Z,9.52
2023-01-11T00:05:50.760Z,7.45
2023-01-11T00:08:19.181Z,13.88
2023-01-11T00:10:45.891Z,7.70
2023-01-11T00:13:14.833Z,8.07
2023-01-11T00:15:41.556Z,9.73
2023-01-11T00:18:08.945Z,8.98
2023-01-11T00:20:38.857Z,8.70
2023-01-11T00:23:05.569Z,12.38
2023-01-11T00:25:35.133Z,9.13
2023-01-11T00:28:03.994Z,9.20
2023-01-11T00:30:30.735Z,9.05
2023-01-11T00:32:58.799Z,11.77
2023-01-11T00:35:27.307Z,13.02
2023-01-11T00:37:54.511Z,7.70
2023-01-11T00:40:21.691Z,6.55
2023-01-11T00:43:14.797Z,7.68
2023-01-11T00:46:19.088Z,5.53
2023-01-11T00:48:47.983Z,9.32
2023-01-11T00:51:14.831Z,9.25
2023-01-11T00:53:41.517Z,8.32
2023-01-11T00:56:08.174Z,4.97
2023-01-11T00:58:34.877Z,6.55
2023-01-11T01:01:07.025Z,6.88
2023-01-11T01:03:34.226Z,10.63
2023-01-11T01:06:05.783Z,7.07
2023-01-11T01:08:32.531Z,16.45
2023-01-11T01:10:59.161Z,7.57
2023-01-11T01:13:44.472Z,8.10
2023-01-11T01:16:11.187Z,15.05
2023-01-11T01:18:37.992Z,6.25
2023-01-11T01:21:06.845Z,8.48
2023-01-11T01:23:33.472Z,8.45
2023-01-11T01:26:04.512Z,8.48
2023-01-11T01:28:31.405Z,5.57
2023-01-11T01:30:58.027Z,8.88
2023-01-11T01:33:25.134Z,10.20
2023-01-11T01:35:51.772Z,11.27
2023-01-11T01:38:21.045Z,8.02
2023-01-11T01:40:48.776Z,8.45
2023-01-11T01:43:19.947Z,5.95
2023-01-11T01:45:49.811Z,8.57
2023-01-11T01:48:20.229Z,7.82
2023-01-11T01:50:52.974Z,8.60
2023-01-11T01:53:28.455Z,4.88
2023-01-11T01:55:58.696Z,5.57
2023-01-11T01:58:30.655Z,13.02
2023-01-11T02:00:57.277Z,8.63
2023-01-11T02:03:26.680Z,4.35
2023-01-11T02:05:56.227Z,5.82
2023-01-11T02:08:37.929Z,6.40
2023-01-11T02:11:24.908Z,8.93
2023-01-11T02:13:51.683Z,10.77
2023-01-11T02:16:18.331Z,3.15
2023-01-11T02:18:45.266Z,9.20
2023-01-11T02:21:37.778Z,5.07
2023-01-11T02:24:23.811Z,7.30
2023-01-11T02:27:27.802Z,6.43
2023-01-11T02:30:24.353Z,5.80
2023-01-11T02:33:02.327Z,6.63
2023-01-11T02:36:02.215Z,6.80
2023-01-11T02:38:44.289Z,4.70
2023-01-11T02:41:25.875Z,10.05
2023-01-11T02:44:11.022Z,8.90
2023-01-11T02:46:48.620Z,6.03
2023-01-11T02:49:40.744Z,5.90
2023-01-11T02:52:21.657Z,7.47
2023-01-11T02:54:54.534Z,6.82
2023-01-11T02:57:26.617Z,7.40
2023-01-11T02:59:56.912Z,8.80
2023-01-11T03:02:24.502Z,6.03
2023-01-11T03:04:51.237Z,7.43
2023-01-11T03:07:45.050Z,15.80
2023-01-11T03:10:21.164Z,3.35
2023-01-11T03:12:55.108Z,8.63
2023-01-11T03:15:36.854Z,2.97
2023-01-11T03:18:24.071Z,3.20
2023-01-11T03:21:07.549Z,5.60
2023-01-11T03:24:26.587Z,4.43
2023-01-11T03:27:19.435Z,3.60
2023-01-11T03:30:11.240Z,5.53
2023-01-11T03:32:48.844Z,2.15
2023-01-11T03:35:30.281Z,3.63
2023-01-11T03:38:11.435Z,2.22
2023-01-11T03:40:53.961Z,3.20
2023-01-11T03:43:22.618Z,7.22
2023-01-11T03:46:07.881Z,5.30
2023-01-11T03:48:52.756Z,5.07
2023-01-11T03:51:27.839Z,5.55
2023-01-11T03:53:58.452Z,6.03
2023-01-11T03:56:36.657Z,3.35
2023-01-11T03:59:03.483Z,4.50
2023-01-11T04:01:30.200Z,3.78
2023-01-11T04:03:59.017Z,4.35
2023-01-11T04:06:25.856Z,7.32
2023-01-11T04:08:52.563Z,4.13
2023-01-11T04:11:19.357Z,4.68
2023-01-11T04:13:46.002Z,3.55
2023-01-11T04:16:12.822Z,2.05
2023-01-11T04:18:39.515Z,3.83
2023-01-11T04:21:06.249Z,5.57
2023-01-11T04:23:32.913Z,5.88
2023-01-11T04:25:59.520Z,3.17
2023-01-11T04:28:28.305Z,5.95
2023-01-11T04:30:54.992Z,8.98
2023-01-11T04:33:21.689Z,2.88
2023-01-11T04:35:50.814Z,4.40
2023-01-11T04:38:18.756Z,3.58
2023-01-11T04:40:47.233Z,6.38
2023-01-11T04:43:13.897Z,3.28
2023-01-11T04:45:40.810Z,7.20
2023-01-11T04:48:09.987Z,6.95
2023-01-11T04:50:36.757Z,6.35
2023-01-11T04:53:03.439Z,8.65
2023-01-11T04:55:30.131Z,3.47
2023-01-11T04:57:59.256Z,6.28
2023-01-11T05:00:28.098Z,4.30
2023-01-11T05:02:54.777Z,2.80
2023-01-11T05:05:24.014Z,8.82
2023-01-11T05:07:53.169Z,3.58
2023-01-11T05:10:21.084Z,8.23
2023-01-11T05:12:47.869Z,3.50
2023-01-11T05:15:14.603Z,4.68
2023-01-11T05:17:41.210Z,4.72
2023-01-11T05:20:08.686Z,6.47
2023-01-11T05:22:37.505Z,5.82
2023-01-11T05:25:06.714Z,4.45
2023-01-11T05:27:33.361Z,6.80
2023-01-11T05:30:00.018Z,7.53
2023-01-11T05:32:26.697Z,6.00
2023-01-11T05:34:53.373Z,7.85
2023-01-11T05:37:20.060Z,6.45
2023-01-11T05:39:46.856Z,5.00
2023-01-11T05:42:16.632Z,4.72
2023-01-11T05:45:02.143Z,3.22
2023-01-11T05:47:28.856Z,6.43
2023-01-11T05:49:55.593Z,2.97
2023-01-11T05:52:24.828Z,3.15
2023-01-11T05:54:53.927Z,6.78
2023-01-11T05:57:20.594Z,4.07
2023-01-11T05:59:49.682Z,4.38
2023-01-11T06:02:16.418Z,3.70
2023-01-11T06:04:43.090Z,2.40
2023-01-11T06:07:11.855Z,2.92
2023-01-11T06:09:41.104Z,2.00
2023-01-11T06:12:07.776Z,2.75
2023-01-11T06:14:36.452Z,3.08
2023-01-11T06:17:04.532Z,2.22
2023-01-11T06:19:31.153Z,1.75
2023-01-11T06:21:57.815Z,3.65
2023-01-11T06:24:26.905Z,5.30
2023-01-11T06:26:55.957Z,3.92
2023-01-11T06:29:22.655Z,4.05
2023-01-11T06:31:49.332Z,5.65
2023-01-11T06:34:18.477Z,3.13
2023-01-11T06:36:45.094Z,2.58
2023-01-11T06:39:11.760Z,2.92
2023-01-11T06:41:38.453Z,3.50
2023-01-11T06:44:06.029Z,4.35
2023-01-11T06:46:32.822Z,4.75
2023-01-11T06:49:01.360Z,2.28
2023-01-11T06:51:28.196Z,3.05
2023-01-11T06:53:54.875Z,3.97
2023-01-11T06:56:21.598Z,4.00
2023-01-11T06:58:52.195Z,3.53
2023-01-11T07:01:19.107Z,2.60
2023-01-11T07:03:48.210Z,5.70
2023-01-11T07:06:14.994Z,4.03
2023-01-11T07:08:42.567Z,4.18
2023-01-11T07:11:09.450Z,1.08
2023-01-11T07:13:36.156Z,3.38
2023-01-11T07:16:02.945Z,1.58
2023-01-11T07:18:31.651Z,2.33
2023-01-11T07:20:58.323Z,3.13
2023-01-11T07:23:27.239Z,4.70
2023-01-11T07:25:58.749Z,4.40
2023-01-11T07:28:29.865Z,2.85
2023-01-11T07:30:59.045Z,1.80
2023-01-11T07:33:28.681Z,4.72
2023-01-11T07:35:55.391Z,2.42
2023-01-11T07:38:25.071Z,4.93
2023-01-11T07:40:54.217Z,0.98
2023-01-11T07:43:23.389Z,1.13
2023-01-11T07:45:52.601Z,1.45
2023-01-11T07:48:25.317Z,6.40
2023-01-11T07:50:53.012Z,3.00
2023-01-11T07:53:19.993Z,4.65
2023-01-11T07:55:47.434Z,2.20
2023-01-11T07:58:15.484Z,1.08
2023-01-11T08:00:42.509Z,1.85
2023-01-11T08:03:12.218Z,1.33
2023-01-11T08:05:39.254Z,3.70
2023-01-11T08:08:06.654Z,2.92
2023-01-11T08:10:36.133Z,1.45
2023-01-11T08:13:21.865Z,1.95
2023-01-11T08:15:48.611Z,3.60
2023-01-11T08:18:17.084Z,3.05
2023-01-11T08:20:43.816Z,1.15
2023-01-11T08:23:13.092Z,2.42
2023-01-11T08:25:42.528Z,2.10
2023-01-11T08:28:10.527Z,3.63
2023-01-11T08:30:38.190Z,1.30
2023-01-11T08:33:07.697Z,3.25
2023-01-11T08:35:38.748Z,7.10
2023-01-11T08:38:10.271Z,1.67
2023-01-11T08:40:37.183Z,3.28
2023-01-11T08:43:04.106Z,2.28
2023-01-11T08:45:30.840Z,2.30
2023-01-11T08:48:00.317Z,2.38
2023-01-11T08:50:27.176Z,2.20
2023-01-11T08:52:53.897Z,2.33
2023-01-11T08:55:20.599Z,2.38
2023-01-11T08:57:49.774Z,1.70
2023-01-11T09:00:19.102Z,3.10
2023-01-11T09:02:45.883Z,1.80
2023-01-11T09:05:12.851Z,3.40
2023-01-11T09:07:42.046Z,2.78
2023-01-11T09:10:09.405Z,3.45
2023-01-11T09:12:36.140Z,1.83
2023-01-11T09:15:05.826Z,2.30
2023-01-11T09:17:32.873Z,2.15
2023-01-11T09:19:59.536Z,2.83
2023-01-11T09:22:27.444Z,2.63
2023-01-11T09:24:59.036Z,3.42
2023-01-11T09:27:26.309Z,2.50
2023-01-11T09:29:52.954Z,2.67
2023-01-11T09:32:22.376Z,4.68
2023-01-11T09:34:49.816Z,3.47
2023-01-11T09:37:16.773Z,5.97
2023-01-11T09:39:43.427Z,3.47
2023-01-11T09:42:41.385Z,3.45
2023-01-11T09:45:34.468Z,5.05
2023-01-11T09:48:20.072Z,3.97
2023-01-11T09:50:50.478Z,3.13
2023-01-11T09:53:36.222Z,2.63
2023-01-11T09:56:06.271Z,3.65
2023-01-11T09:58:53.521Z,2.83
2023-01-11T10:01:38.843Z,3.33
2023-01-11T10:04:41.622Z,2.60
2023-01-11T10:07:21.210Z,1.90
2023-01-11T10:18:28.854Z,1.70
2023-01-11T10:19:37.341Z,2.20
2023-01-11T10:22:33.629Z,4.40
2023-01-11T10:25:11.659Z,4.50
2023-01-11T10:27:44.531Z,3.65
2023-01-11T10:30:34.134Z,3.58
2023-01-11T10:33:34.180Z,3.83
2023-01-11T10:36:27.622Z,3.90
2023-01-11T10:39:38.100Z,7.22
2023-01-11T10:42:10.283Z,3.42
2023-01-11T10:44:44.696Z,3.13
2023-01-11T10:47:19.317Z,3.95
2023-01-11T10:49:52.158Z,4.78
2023-01-11T10:52:33.409Z,4.78
2023-01-11T10:55:01.121Z,4.22
2023-01-11T10:57:38.738Z,4.97
2023-01-11T11:00:45.013Z,4.65
2023-01-11T11:03:24.733Z,5.70
2023-01-11T11:06:08.575Z,3.45
2023-01-11T11:08:52.048Z,2.85
2023-01-11T11:11:41.391Z,3.67
2023-01-11T11:14:30.211Z,2.60
2023-01-11T11:17:08.572Z,3.45
2023-01-11T11:19:38.037Z,5.05
2023-01-11T11:22:08.199Z,3.55
2023-01-11T11:24:42.840Z,3.53
2023-01-11T11:27:30.142Z,4.60
2023-01-11T11:29:57.213Z,3.33
2023-01-11T11:32:37.160Z,3.92
2023-01-11T11:35:04.783Z,6.25
2023-01-11T11:37:41.857Z,4.85
2023-01-11T11:40:34.802Z,3.10
2023-01-11T11:43:25.571Z,3.20
2023-01-11T11:45:57.053Z,2.40
2023-01-11T11:48:28.131Z,2.92
2023-01-11T11:50:59.787Z,1.40
2023-01-11T11:53:51.807Z,1.42
2023-01-11T11:56:31.368Z,1.08
2023-01-11T11:58:59.554Z,1.25
2023-01-11T12:01:28.811Z,0.50
2023-01-11T12:04:00.691Z,1.08
2023-01-11T12:06:29.550Z,0.63
2023-01-11T12:09:01.791Z,1.75
2023-01-11T12:11:41.982Z,0.77
2023-01-11T12:14:11.716Z,2.90
2023-01-11T12:16:40.957Z,0.68
2023-01-11T12:19:35.792Z,0.38
2023-01-11T12:22:16.134Z,0.30
2023-01-11T12:24:42.977Z,0.70
2023-01-11T12:27:18.616Z,2.78
2023-01-11T12:30:10.082Z,0.98
2023-01-11T12:33:08.334Z,1.98
2023-01-11T12:35:49.557Z,3.85
2023-01-11T12:38:48.494Z,4.68
2023-01-11T12:41:47.503Z,2.20
2023-01-11T12:44:38.032Z,2.25
2023-01-11T12:47:42.936Z,3.42
2023-01-11T12:50:26.580Z,2.58
2023-01-11T12:53:20.686Z,3.95
2023-01-11T12:56:20.725Z,2.67
2023-01-11T12:59:02.419Z,3.08
2023-01-11T13:02:02.328Z,1.50
2023-01-11T13:04:31.934Z,0.90
2023-01-11T13:07:04.528Z,0.30
2023-01-11T13:09:43.056Z,0.30
2023-01-11T13:12:21.735Z,1.23
2023-01-11T13:14:54.158Z,0.80
2023-01-11T13:17:41.831Z,2.33
2023-01-11T13:20:14.764Z,0.82
2023-01-11T13:22:49.681Z,0.50
2023-01-11T13:25:24.070Z,0.60
2023-01-11T13:27:52.895Z,2.00
2023-01-11T13:30:20.166Z,2.08
2023-01-11T13:33:12.197Z,2.05
2023-01-11T13:35:49.834Z,2.60
2023-01-11T13:38:37.134Z,0.98
2023-01-11T13:41:11.437Z,3.25
2023-01-11T13:43:53.444Z,4.18
2023-01-11T13:46:54.286Z,4.03
2023-01-11T13:49:45.718Z,1.20
2023-01-11T13:52:22.442Z,3.33
2023-01-11T13:55:14.380Z,2.53
2023-01-11T13:57:59.837Z,3.65
2023-01-11T14:00:45.718Z,5.70
2023-01-11T14:03:41.487Z,3.30
2023-01-11T14:06:28.664Z,5.10
2023-01-11T14:09:20.050Z,4.95
2023-01-11T14:11:58.531Z,3.92
2023-01-11T14:14:51.129Z,4.10
2023-01-11T14:17:23.782Z,5.03
2023-01-11T14:20:23.567Z,5.53
2023-01-11T14:23:12.076Z,3.58
2023-01-11T14:26:09.830Z,2.78
2023-01-11T14:28:46.989Z,4.22
2023-01-11T14:31:33.687Z,4.70
2023-01-11T14:34:27.622Z,5.75
2023-01-11T14:37:12.381Z,3.00
2023-01-11T14:40:00.060Z,3.05
2023-01-11T14:42:40.835Z,4.63
2023-01-11T14:45:13.464Z,3.15
2023-01-11T14:48:06.713Z,5.00
2023-01-11T14:50:50.473Z,7.75
2023-01-11T14:53:27.455Z,7.32
2023-01-11T14:55:54.174Z,6.93
2023-01-11T14:58:30.155Z,9.10
2023-01-11T15:00:56.732Z,6.05
2023-01-11T15:03:23.360Z,11.23
2023-01-11T15:06:00.387Z,6.10
2023-01-11T15:08:44.312Z,9.80
2023-01-11T15:11:49.408Z,8.93
2023-01-11T15:14:30.170Z,8.07
2023-01-11T15:17:20.293Z,8.13
2023-01-11T15:19:48.972Z,11.48
2023-01-11T15:22:34.102Z,10.13
2023-01-11T15:25:07.829Z,10.43
2023-01-11T15:27:37.415Z,7.68
2023-01-11T15:30:30.065Z,9.88
2023-01-11T15:33:18.884Z,10.32
2023-01-11T15:36:06.808Z,9.85
2023-01-11T15:39:01.024Z,9.02
2023-01-11T15:42:05.497Z,11.63
2023-01-11T15:45:00.020Z,11.52
2023-01-11T15:47:55.010Z,9.40
2023-01-11T15:50:30.906Z,13.75
2023-01-11T15:53:16.516Z,9.68
2023-01-11T15:56:17.051Z,11.82
2023-01-11T15:59:02.208Z,13.88
2023-01-11T16:01:29.547Z,7.53
2023-01-11T16:04:20.042Z,12.02
2023-01-11T16:07:07.183Z,11.27
2023-01-11T16:10:15.094Z,9.65
2023-01-11T16:12:57.826Z,9.50
2023-01-11T16:15:56.749Z,8.23
2023-01-11T16:18:33.622Z,9.95
2023-01-11T16:21:07.449Z,10.57
2023-01-11T16:26:05.209Z,9.75
2023-01-11T16:28:37.128Z,12.43
2023-01-11T16:31:05.442Z,6.47
2023-01-11T16:33:35.950Z,9.60
2023-01-11T16:36:07.528Z,13.70
2023-01-11T16:38:59.546Z,7.60
2023-01-11T16:41:51.377Z,7.18
2023-01-11T16:44:30.460Z,13.73
2023-01-11T16:47:16.896Z,10.23
2023-01-11T16:49:49.319Z,11.15
2023-01-11T16:52:28.414Z,13.13
2023-01-11T16:54:57.507Z,9.60
2023-01-11T16:57:32.118Z,16.25
2023-01-11T17:00:16.074Z,9.13
2023-01-11T17:02:47.138Z,9.48
2023-01-11T17:05:22.698Z,19.77
2023-01-11T17:07:50.086Z,12.13
2023-01-11T17:10:28.548Z,8.30
2023-01-11T17:13:34.397Z,12.88
2023-01-11T17:16:11.077Z,8.00
2023-01-11T17:18:40.053Z,12.90
2023-01-11T17:21:19.656Z,10.60
2023-01-11T17:23:51.124Z,9.93
2023-01-11T17:26:25.501Z,12.18
2023-01-11T17:28:58.081Z,13.75
2023-01-11T17:31:29.513Z,8.32
2023-01-11T17:34:15.373Z,16.63
2023-01-11T17:36:43.378Z,11.50
2023-01-11T17:39:32.392Z,11.93
2023-01-11T17:42:26.124Z,9.68
2023-01-11T17:45:13.374Z,10.30
2023-01-11T17:47:48.454Z,12.38
2023-01-11T17:50:22.408Z,12.32
2023-01-11T17:52:54.867Z,12.85
2023-01-11T17:55:28.329Z,11.00
2023-01-11T17:58:26.068Z,11.48
2023-01-11T18:01:05.357Z,16.95
2023-01-11T18:03:43.152Z,11.05
2023-01-11T18:06:27.650Z,13.15
2023-01-11T18:08:56.602Z,10.35
2023-01-11T18:11:30.621Z,12.80
2023-01-11T18:14:03.532Z,14.70
2023-01-11T18:16:32.522Z,15.83
2023-01-11T18:19:00.244Z,19.83
2023-01-11T18:21:26.971Z,7.65
2023-01-11T18:24:33.736Z,11.57
2023-01-11T18:27:17.993Z,13.60
2023-01-11T18:29:46.064Z,14.98
2023-01-11T18:32:14.215Z,12.05
2023-01-11T18:34:43.927Z,9.50
2023-01-11T18:37:13.273Z,11.80
2023-01-11T18:39:42.902Z,6.75
2023-01-11T18:42:18.986Z,14.05
2023-01-11T18:44:47.637Z,6.63
2023-01-11T18:47:25.307Z,8.73
2023-01-11T18:49:53.042Z,6.85
2023-01-11T18:52:22.106Z,7.38
2023-01-11T18:54:48.871Z,11.07
2023-01-11T18:57:15.689Z,8.68
2023-01-11T18:59:42.460Z,11.65
2023-01-11T19:02:17.262Z,8.57
2023-01-11T19:04:47.033Z,12.65
2023-01-11T19:07:14.379Z,10.00
2023-01-11T19:09:41.374Z,10.07
2023-01-11T19:12:11.341Z,15.23
2023-01-11T19:14:40.973Z,11.73
2023-01-11T19:17:11.439Z,10.52
2023-01-11T19:19:40.673Z,10.32
2023-01-11T19:22:12.980Z,17.58
2023-01-11T19:24:40.184Z,12.60
2023-01-11T19:27:07.021Z,14.18
2023-01-11T19:29:33.834Z,14.27
2023-01-11T19:32:00.579Z,16.80
2023-01-11T19:34:27.367Z,12.68
2023-01-11T19:36:54.091Z,14.48
2023-01-11T19:39:20.771Z,14.35
2023-01-11T19:42:07.825Z,10.43
2023-01-11T19:44:38.732Z,14.57
2023-01-11T19:47:12.337Z,14.88
2023-01-11T19:49:40.534Z,18.75
2023-01-11T19:52:14.028Z,20.98
2023-01-11T19:54:48.155Z,14.85
2023-01-11T19:57:20.857Z,15.45
2023-01-11T19:59:48.828Z,12.15
2023-01-11T20:02:19.412Z,12.85
2023-01-11T20:04:46.520Z,9.57
2023-01-11T20:07:14.263Z,11.10
2023-01-11T20:09:43.278Z,18.30
2023-01-11T20:12:12.315Z,10.73
2023-01-11T20:14:40.455Z,17.23
2023-01-11T20:17:08.218Z,15.00
2023-01-11T20:19:35.060Z,11.88
2023-01-11T20:22:01.921Z,10.40
2023-01-11T20:24:29.900Z,11.95
2023-01-11T20:26:58.621Z,16.80
2023-01-11T20:29:25.519Z,11.85
2023-01-11T20:31:52.389Z,12.23
2023-01-11T20:34:19.473Z,10.88
2023-01-11T20:36:48.981Z,11.32
2023-01-11T20:39:17.298Z,11.63
2023-01-11T20:41:47.403Z,12.40
2023-01-11T20:44:23.761Z,10.45
2023-01-11T20:46:51.831Z,18.50
2023-01-11T20:49:18.891Z,18.38
2023-01-11T20:51:48.914Z,17.40
2023-01-11T20:54:18.402Z,12.30
2023-01-11T20:56:47.840Z,14.00
2023-01-11T20:59:19.507Z,15.27
2023-01-11T21:01:48.372Z,14.25
2023-01-11T21:04:16.442Z,14.85
2023-01-11T21:06:45.311Z,15.25
2023-01-11T21:09:15.605Z,9.63
2023-01-11T21:11:42.635Z,14.68
2023-01-11T21:14:11.961Z,17.58
2023-01-11T21:16:42.886Z,14.50
2023-01-11T21:19:14.747Z,10.88
2023-01-11T21:21:42.306Z,15.93
2023-01-11T21:24:12.791Z,14.43
2023-01-11T21:26:41.819Z,13.10
2023-01-11T21:29:10.281Z,15.27
2023-01-11T21:31:37.422Z,15.52
2023-01-11T21:34:04.861Z,10.68
2023-01-11T21:36:32.382Z,16.75
2023-01-11T21:39:02.780Z,16.73
2023-01-11T21:41:50.395Z,18.58
2023-01-11T21:44:20.505Z,12.32
2023-01-11T21:46:49.919Z,14.27
2023-01-11T21:49:21.255Z,13.75
2023-01-11T21:51:50.414Z,16.45
2023-01-11T21:54:20.455Z,8.82
2023-01-11T21:56:50.613Z,13.63
2023-01-11T21:59:17.991Z,9.77
2023-01-11T22:01:46.024Z,11.90
2023-01-11T22:04:15.324Z,14.55
2023-01-11T22:06:50.760Z,16.02
2023-01-11T22:09:17.978Z,15.52
2023-01-11T22:11:44.672Z,15.57
2023-01-11T22:14:12.214Z,13.00
2023-01-11T22:16:39.407Z,14.07
2023-01-11T22:19:07.630Z,16.20
2023-01-11T22:21:37.629Z,13.43
2023-01-11T22:24:05.248Z,11.57
2023-01-11T22:26:38.707Z,13.70
2023-01-11T22:29:16.564Z,16.00
2023-01-11T22:31:54.811Z,16.30
2023-01-11T22:34:21.971Z,15.50
2023-01-11T22:36:48.761Z,16.58
2023-01-11T22:39:16.676Z,12.32
2023-01-11T22:41:45.516Z,12.13
2023-01-11T22:44:12.978Z,18.13
2023-01-11T22:46:41.927Z,16.10
2023-01-11T22:49:11.564Z,11.48
2023-01-11T22:51:39.657Z,11.95
2023-01-11T22:54:08.600Z,17.20
2023-01-11T22:56:35.304Z,22.00
2023-01-11T22:59:02.051Z,10.27
2023-01-11T23:01:34.466Z,21.85
2023-01-11T23:04:04.122Z,12.48
2023-01-11T23:06:41.285Z,14.65
2023-01-11T23:09:11.066Z,25.48
2023-01-11T23:11:58.127Z,18.60
2023-01-11T23:14:30.694Z,11.45
2023-01-11T23:17:10.484Z,18.10
2023-01-11T23:19:39.239Z,16.15
2023-01-11T23:22:07.278Z,18.48
2023-01-11T23:24:35.899Z,21.05
2023-01-11T23:27:02.601Z,20.02
2023-01-11T23:29:29.396Z,25.35
2023-01-11T23:31:56.118Z,13.55
2023-01-11T23:34:23.023Z,12.85
2023-01-11T23:36:49.683Z,15.45
2023-01-11T23:39:19.638Z,9.98
2023-01-11T23:42:05.234Z,18.27
2023-01-11T23:44:34.439Z,16.23
2023-01-11T23:47:19.888Z,18.80
2023-01-11T23:49:50.228Z,19.42
2023-01-11T23:52:18.313Z,11.18
2023-01-11T23:54:45.611Z,18.83
2023-01-11T23:57:13.415Z,15.07
2023-01-11T23:59:41.203Z,21.92
